Time;durP1;ratioP1;P1;durP2;ratioP2;P2;SDS_P1;SDS_P2;PMS_P1;PMS_P2;Temp;Humidity;BMP_temperature;BMP_pressure;BME280_temperature;BME280_humidity;BME280_pressure;Samples;Min_cycle;Max_cycle;Signal;HPM_P1;HPM_P2
2022/03/31 00:00:00;;;;;;;2.90;2.53;;;;;;;2.61;95.79;99183.97;5074254;28;20227;-75
2022/03/31 00:02:27;;;;;;;3.13;2.50;;;;;;;2.65;95.12;99185.78;5074131;28;20261;-76
2022/03/31 00:04:53;;;;;;;2.43;2.13;;;;;;;2.52;94.87;99181.09;5074042;28;20524;-77
2022/03/31 00:07:18;;;;;;;3.13;2.57;;;;;;;2.58;95.06;99179.13;5073992;28;20254;-75
2022/03/31 00:09:43;;;;;;;4.60;2.57;;;;;;;2.46;95.03;99174.19;5074114;28;20734;-76
2022/03/31 00:12:09;;;;;;;4.77;2.80;;;;;;;2.49;95.50;99178.19;5074170;28;20182;-77
2022/03/31 00:14:35;;;;;;;4.30;2.50;;;;;;;2.52;95.67;99177.59;5074091;28;20257;-75
2022/03/31 00:17:01;;;;;;;4.93;3.03;;;;;;;2.46;95.55;99178.75;5073737;28;20450;-76
2022/03/31 00:19:26;;;;;;;6.77;3.57;;;;;;;2.25;96.30;99173.59;5073531;28;20182;-74
2022/03/31 00:32:31;;;;;;;2.90;2.60;;;;;;;2.49;97.49;99172.78;5073399;28;20181;-76
2022/03/31 00:34:56;;;;;;;4.30;3.40;;;;;;;2.62;97.04;99172.09;5073210;28;20513;-76
2022/03/31 00:37:37;;;;;;;5.40;2.70;;;;;;;2.76;96.17;99172.16;5072725;28;20182;-76
2022/03/31 00:40:04;;;;;;;2.67;2.47;;;;;;;2.82;95.64;99177.19;5072933;28;20243;-76
2022/03/31 00:42:30;;;;;;;3.23;2.50;;;;;;;2.88;95.04;99165.22;5071589;28;20627;-74
2022/03/31 00:44:55;;;;;;;3.40;3.07;;;;;;;2.95;94.72;99172.97;5071389;28;20166;-77
2022/03/31 00:47:21;;;;;;;5.50;3.10;;;;;;;2.94;94.61;99165.97;5072483;28;20182;-72
2022/03/31 00:49:46;;;;;;;3.50;2.30;;;;;;;3.04;94.27;99176.63;5071320;28;20297;-77
2022/03/31 00:52:12;;;;;;;3.43;3.13;;;;;;;3.10;94.29;99171.94;5072792;28;20256;-73
2022/03/31 00:54:40;;;;;;;7.07;2.80;;;;;;;3.17;93.62;99167.75;5072952;28;20582;-72
2022/03/31 00:57:10;;;;;;;7.50;2.93;;;;;;;3.18;93.43;99176.66;5072497;28;20573;-71
2022/03/31 00:59:36;;;;;;;3.63;3.23;;;;;;;3.18;93.34;99169.38;5072943;28;20436;-71
2022/03/31 01:02:03;;;;;;;4.23;3.20;;;;;;;3.02;92.93;99159.09;5072795;28;20216;-72
2022/03/31 01:04:29;;;;;;;3.67;2.87;;;;;;;2.84;93.22;99152.63;5071290;28;20178;-71
2022/03/31 01:06:55;;;;;;;4.23;3.70;;;;;;;2.90;93.10;99148.75;5072607;28;20178;-71
2022/03/31 01:09:21;;;;;;;4.97;3.13;;;;;;;2.99;93.43;99155.09;5073054;28;20569;-74
2022/03/31 01:11:46;;;;;;;4.53;2.93;;;;;;;2.89;93.21;99149.84;5072666;28;20177;-71
2022/03/31 01:14:12;;;;;;;4.20;2.97;;;;;;;3.02;93.18;99140.19;5072836;28;20205;-73
2022/03/31 01:16:38;;;;;;;4.50;3.80;;;;;;;2.72;92.90;99131.47;5072725;28;20181;-72
2022/03/31 01:19:05;;;;;;;9.10;3.43;;;;;;;2.33;94.29;99124.47;5072279;28;20182;-72
2022/03/31 01:21:36;;;;;;;4.10;3.70;;;;;;;2.32;95.60;99122.06;5072657;28;20532;-75
2022/03/31 01:24:02;;;;;;;6.47;4.23;;;;;;;2.20;95.96;99116.31;5072400;28;20224;-71
2022/03/31 01:26:27;;;;;;;4.47;3.67;;;;;;;2.05;97.08;99118.09;5070881;28;20198;-71
2022/03/31 01:28:53;;;;;;;4.50;3.13;;;;;;;1.99;98.03;99115.72;5071846;28;20580;-76
2022/03/31 01:31:20;;;;;;;9.53;3.80;;;;;;;1.93;98.94;99117.69;5072332;28;20174;-76
2022/03/31 01:33:45;;;;;;;5.87;3.30;;;;;;;2.06;99.20;99127.78;5072457;28;20181;-75
2022/03/31 01:36:11;;;;;;;6.27;3.57;;;;;;;2.34;98.58;99126.09;5072188;28;20171;-72
2022/03/31 01:38:36;;;;;;;4.10;3.70;;;;;;;2.41;97.08;99122.22;5071793;28;20257;-71
2022/03/31 01:41:01;;;;;;;3.73;2.63;;;;;;;2.36;95.67;99123.09;5072389;28;20240;-72
2022/03/31 01:43:27;;;;;;;5.97;3.80;;;;;;;2.30;94.99;99113.44;5072284;28;20181;-76
2022/03/31 01:45:54;;;;;;;4.23;2.73;;;;;;;2.23;94.77;99111.13;5071642;28;20625;-76
2022/03/31 01:48:20;;;;;;;4.77;2.97;;;;;;;2.15;94.71;99111.75;5071504;28;20187;-76
2022/03/31 01:50:46;;;;;;;4.80;3.27;;;;;;;2.14;95.16;99107.47;5071731;28;20186;-75
2022/03/31 01:53:14;;;;;;;5.83;3.30;;;;;;;2.19;95.54;99106.63;5071024;28;20175;-73
2022/03/31 01:55:40;;;;;;;4.17;3.50;;;;;;;2.12;95.67;99103.47;5071722;28;20224;-73
2022/03/31 01:58:06;;;;;;;5.40;3.47;;;;;;;2.09;96.11;99107.53;5071314;28;20178;-75
2022/03/31 02:00:32;;;;;;;4.47;3.23;;;;;;;2.08;96.57;99095.16;5071388;28;20183;-74
2022/03/31 02:02:59;;;;;;;4.17;3.70;;;;;;;2.12;96.56;99098.88;5070115;28;20186;-76
2022/03/31 02:05:25;;;;;;;4.03;3.63;;;;;;;2.11;96.61;99094.56;5071719;28;20212;-76
2022/03/31 02:07:56;;;;;;;4.10;3.33;;;;;;;2.18;96.79;99102.31;5071017;28;20269;-74
2022/03/31 02:10:25;;;;;;;6.00;3.77;;;;;;;2.23;96.67;99102.25;5071362;28;20175;-76
2022/03/31 02:12:51;;;;;;;2.83;2.63;;;;;;;2.18;96.68;99081.56;5071297;28;20261;-77
2022/03/31 02:15:16;;;;;;;5.83;3.90;;;;;;;2.07;96.66;99082.78;5071276;28;20693;-74
2022/03/31 02:17:41;;;;;;;5.50;3.33;;;;;;;1.76;97.44;99075.06;5071022;28;20170;-76
2022/03/31 02:20:08;;;;;;;5.83;3.83;;;;;;;1.58;99.42;99072.31;5071099;28;20180;-77
2022/03/31 02:22:34;;;;;;;4.67;3.83;;;;;;;1.60;100.00;99073.66;5071183;28;20578;-76
2022/03/31 02:25:00;;;;;;;4.43;3.60;;;;;;;1.59;100.00;99080.13;5070923;28;20179;-75
2022/03/31 02:27:26;;;;;;;5.83;4.37;;;;;;;1.60;100.00;99076.34;5070871;28;20180;-78
2022/03/31 02:29:51;;;;;;;4.73;4.20;;;;;;;1.81;100.00;99086.88;5070622;28;20209;-75
2022/03/31 02:32:16;;;;;;;9.87;4.03;;;;;;;1.88;100.00;99076.53;5070877;28;20683;-75
2022/03/31 02:34:42;;;;;;;6.53;3.93;;;;;;;1.93;100.00;99080.00;5070926;28;20199;-76
2022/03/31 02:37:07;;;;;;;7.37;4.13;;;;;;;1.90;100.00;99077.88;5070572;28;20178;-77
2022/03/31 02:39:33;;;;;;;6.07;4.50;;;;;;;1.91;100.00;99081.38;5070577;28;20186;-77
2022/03/31 02:42:00;;;;;;;13.13;5.20;;;;;;;1.82;100.00;99065.03;5071307;28;20582;-77
2022/03/31 02:44:26;;;;;;;5.20;4.60;;;;;;;1.68;100.00;99062.25;5070761;28;20200;-76
2022/03/31 02:46:51;;;;;;;5.47;4.97;;;;;;;1.68;100.00;99069.50;5070448;28;20548;-73
2022/03/31 02:49:17;;;;;;;5.07;4.57;;;;;;;1.65;100.00;99067.41;5070560;28;20196;-76
2022/03/31 02:51:43;;;;;;;11.47;5.60;;;;;;;1.67;100.00;99057.13;5070517;28;20201;-76
2022/03/31 02:56:52;;;;;;;6.70;4.23;;;;;;;1.89;100.00;99059.31;5069905;28;20225;-77
2022/03/31 02:59:18;;;;;;;5.73;4.63;;;;;;;1.75;100.00;99046.56;5070654;28;20170;-75
2022/03/31 03:01:43;;;;;;;6.07;4.87;;;;;;;1.78;100.00;99056.75;5071154;28;20183;-76
2022/03/31 03:04:10;;;;;;;7.60;4.43;;;;;;;1.79;100.00;99052.97;5070800;28;20227;-76
2022/03/31 03:06:36;;;;;;;8.03;4.47;;;;;;;1.82;100.00;99056.16;5070694;28;20183;-77
2022/03/31 03:09:03;;;;;;;5.43;4.93;;;;;;;1.82;100.00;99056.97;5070648;28;20293;-75
2022/03/31 03:11:28;;;;;;;8.20;4.97;;;;;;;1.89;100.00;99056.63;5071132;28;20170;-76
2022/03/31 03:13:54;;;;;;;6.27;4.80;;;;;;;1.85;100.00;99055.56;5069479;28;20652;-77
2022/03/31 03:16:19;;;;;;;7.97;4.93;;;;;;;1.85;100.00;99064.44;5070702;28;20171;-78
2022/03/31 03:18:44;;;;;;;11.33;5.53;;;;;;;1.75;100.00;99059.22;5070586;28;20185;-76
2022/03/31 03:21:10;;;;;;;7.23;6.30;;;;;;;1.84;100.00;99049.38;5070563;28;20205;-77
2022/03/31 03:23:37;;;;;;;6.60;5.07;;;;;;;1.90;100.00;99055.53;5070945;28;20643;-75
2022/03/31 03:26:03;;;;;;;15.10;6.40;;;;;;;1.96;100.00;99062.44;5070722;28;20203;-77
2022/03/31 03:28:30;;;;;;;5.90;5.23;;;;;;;1.98;100.00;99061.06;5070340;28;20233;-76
2022/03/31 03:30:56;;;;;;;9.70;6.67;;;;;;;1.98;100.00;99055.69;5070610;28;20732;-78
2022/03/31 03:33:21;;;;;;;7.30;6.43;;;;;;;2.01;100.00;99059.69;5070482;28;20264;-77
2022/03/31 03:35:46;;;;;;;12.50;7.10;;;;;;;2.02;100.00;99063.97;5070762;28;20174;-77
2022/03/31 03:38:14;;;;;;;9.10;6.93;;;;;;;2.09;100.00;99072.50;5070408;28;20182;-77
2022/03/31 03:40:40;;;;;;;7.60;6.33;;;;;;;2.15;100.00;99065.97;5070373;28;20293;-77
2022/03/31 03:43:05;;;;;;;8.80;6.67;;;;;;;2.19;100.00;99071.59;5070539;28;20261;-74
2022/03/31 03:45:30;;;;;;;13.33;7.40;;;;;;;2.16;100.00;99077.53;5070240;28;20245;-77
2022/03/31 03:47:57;;;;;;;7.43;6.70;;;;;;;2.10;100.00;99082.19;5070410;28;20185;-79
2022/03/31 03:50:22;;;;;;;9.10;8.13;;;;;;;2.13;100.00;99072.72;5070330;28;20652;-79
2022/03/31 03:52:48;;;;;;;11.47;8.37;;;;;;;2.02;100.00;99080.94;5068928;28;20175;-78
2022/03/31 03:55:13;;;;;;;12.47;9.53;;;;;;;2.00;100.00;99068.84;5070379;28;20188;-77
2022/03/31 03:57:39;;;;;;;12.37;9.83;;;;;;;2.00;100.00;99072.34;5070066;28;20626;-77
2022/03/31 04:00:06;;;;;;;15.73;10.43;;;;;;;2.07;100.00;99074.69;5068945;28;20547;-76
2022/03/31 04:02:31;;;;;;;14.17;10.77;;;;;;;1.92;100.00;99064.13;5070459;28;20233;-77
2022/03/31 04:04:57;;;;;;;11.13;10.03;;;;;;;1.84;100.00;99068.25;5070762;28;20175;-78
2022/03/31 04:07:22;;;;;;;9.80;8.80;;;;;;;1.88;100.00;99071.16;5070056;28;20201;-78
2022/03/31 04:09:47;;;;;;;13.07;9.67;;;;;;;1.90;100.00;99069.00;5070075;28;20214;-75
2022/03/31 04:12:13;;;;;;;11.80;8.67;;;;;;;1.81;100.00;99076.09;5070110;28;20181;-77
2022/03/31 04:14:38;;;;;;;14.90;10.30;;;;;;;1.89;100.00;99062.81;5070112;28;20178;-77
2022/03/31 04:17:04;;;;;;;11.30;10.20;;;;;;;2.01;100.00;99063.16;5073143;28;20201;-78
2022/03/31 04:19:29;;;;;;;13.93;10.70;;;;;;;2.08;100.00;99058.25;5073878;28;20171;-78
2022/03/31 04:21:55;;;;;;;14.90;10.43;;;;;;;2.17;100.00;99066.50;5073710;28;20208;-77
2022/03/31 04:24:20;;;;;;;12.60;9.10;;;;;;;2.22;100.00;99044.88;5073732;28;20245;-76
2022/03/31 04:26:45;;;;;;;12.13;10.10;;;;;;;2.30;100.00;99079.22;5073623;28;20171;-78
2022/03/31 04:29:11;;;;;;;12.37;11.07;;;;;;;2.35;100.00;99043.34;5073912;28;20596;-78
2022/03/31 04:31:43;;;;;;;12.30;11.03;;;;;;;2.36;100.00;99058.41;5073695;28;20224;-77
2022/03/31 04:34:10;;;;;;;11.00;9.47;;;;;;;2.41;100.00;99058.34;5073561;28;20171;-76
2022/03/31 04:36:36;;;;;;;13.60;9.53;;;;;;;2.42;100.00;99065.31;5073542;28;20657;-77
2022/03/31 04:39:02;;;;;;;12.70;10.03;;;;;;;2.42;100.00;99049.16;5073355;28;20191;-78
2022/03/31 04:41:28;;;;;;;22.23;12.00;;;;;;;2.44;100.00;99067.72;5072119;28;20541;-77
2022/03/31 04:43:53;;;;;;;12.73;9.40;;;;;;;2.48;100.00;99052.59;5073414;28;20234;-73
2022/03/31 04:46:19;;;;;;;16.30;12.00;;;;;;;2.36;100.00;99053.81;5073206;28;20175;-76
2022/03/31 04:48:45;;;;;;;11.27;10.03;;;;;;;2.44;100.00;99059.63;5073131;28;20207;-74
2022/03/31 04:51:10;;;;;;;14.40;11.90;;;;;;;2.37;100.00;99049.22;5073340;28;20535;-76
2022/03/31 04:53:35;;;;;;;18.17;12.37;;;;;;;2.34;100.00;99056.00;5073311;28;20205;-75
2022/03/31 04:56:01;;;;;;;15.80;12.17;;;;;;;2.36;100.00;99064.59;5073287;28;20550;-78
2022/03/31 04:58:26;;;;;;;17.63;11.50;;;;;;;2.35;100.00;99060.31;5072862;28;20175;-74
2022/03/31 05:00:52;;;;;;;17.47;13.00;;;;;;;2.34;100.00;99058.72;5073403;28;20175;-78
2022/03/31 05:03:18;;;;;;;15.53;12.33;;;;;;;2.32;100.00;99058.19;5073114;28;20711;-77
2022/03/31 05:05:43;;;;;;;18.60;13.33;;;;;;;2.32;100.00;99063.59;5073022;28;20661;-78
2022/03/31 05:08:08;;;;;;;18.13;12.83;;;;;;;2.32;100.00;99065.47;5072508;28;20194;-84
2022/03/31 05:10:34;;;;;;;20.07;13.47;;;;;;;2.33;100.00;99075.97;5072934;28;20198;-76
2022/03/31 05:13:00;;;;;;;18.70;13.47;;;;;;;2.34;100.00;99074.88;5072719;28;20241;-79
2022/03/31 05:15:25;;;;;;;18.43;12.87;;;;;;;2.40;100.00;99086.38;5071617;28;20656;-76
2022/03/31 05:17:51;;;;;;;15.50;12.23;;;;;;;2.47;100.00;99083.34;5072533;28;20582;-76
2022/03/31 05:20:16;;;;;;;14.87;11.93;;;;;;;2.47;100.00;99091.41;5072734;28;20166;-75
2022/03/31 05:22:41;;;;;;;14.43;11.63;;;;;;;2.54;100.00;99078.38;5072432;28;20645;-76
2022/03/31 05:25:09;;;;;;;16.37;10.60;;;;;;;2.54;100.00;99072.97;5070898;28;20170;-76
2022/03/31 05:27:43;;;;;;;13.17;11.13;;;;;;;2.53;100.00;99066.78;5070780;28;20186;-74
2022/03/31 05:30:09;;;;;;;17.87;10.83;;;;;;;2.53;100.00;99061.41;5072198;28;20244;-76
2022/03/31 05:32:34;;;;;;;13.30;9.80;;;;;;;2.57;100.00;99067.00;5072080;28;20260;-76
2022/03/31 05:35:00;;;;;;;11.97;10.77;;;;;;;2.61;100.00;99065.34;5072093;28;20262;-75
2022/03/31 05:37:25;;;;;;;10.77;9.70;;;;;;;2.61;100.00;99058.03;5071713;28;20220;-73
2022/03/31 05:39:51;;;;;;;9.97;9.17;;;;;;;2.66;100.00;99084.91;5072283;28;20582;-76
2022/03/31 05:42:16;;;;;;;11.93;10.47;;;;;;;2.67;100.00;99083.03;5072013;28;20205;-74
2022/03/31 05:44:41;;;;;;;13.00;10.97;;;;;;;2.69;100.00;99119.38;5071745;28;20530;-76
2022/03/31 05:47:08;;;;;;;14.87;11.83;;;;;;;2.77;100.00;99082.88;5071460;28;20261;-76
2022/03/31 05:49:34;;;;;;;15.33;13.10;;;;;;;2.73;100.00;99111.50;5071571;28;20210;-73
2022/03/31 05:52:00;;;;;;;18.20;12.90;;;;;;;2.75;100.00;99084.25;5071945;28;20225;-75
2022/03/31 05:54:26;;;;;;;18.30;13.77;;;;;;;2.77;100.00;99114.44;5071687;28;20198;-74
2022/03/31 05:56:52;;;;;;;17.13;13.67;;;;;;;2.82;100.00;99123.25;5071432;28;20185;-76
2022/03/31 05:59:17;;;;;;;22.67;15.27;;;;;;;2.85;100.00;99116.47;5071400;28;20270;-73
2022/03/31 06:01:43;;;;;;;16.80;13.47;;;;;;;2.89;100.00;99117.47;5071621;28;20826;-75
2022/03/31 06:04:08;;;;;;;22.97;14.30;;;;;;;2.91;100.00;99118.81;5071346;28;20174;-74
2022/03/31 06:06:34;;;;;;;16.03;13.33;;;;;;;2.93;100.00;99116.59;5071312;28;20542;-76
2022/03/31 06:08:59;;;;;;;18.20;14.43;;;;;;;2.88;100.00;99119.38;5071139;28;20305;-75
2022/03/31 06:11:24;;;;;;;18.50;14.53;;;;;;;2.87;100.00;99114.25;5071389;28;20232;-78
2022/03/31 06:13:50;;;;;;;23.80;15.37;;;;;;;2.82;100.00;99123.25;5071318;28;20200;-76
2022/03/31 06:16:15;;;;;;;22.33;15.70;;;;;;;2.82;100.00;99101.66;5071206;28;20595;-73
2022/03/31 06:18:42;;;;;;;19.43;16.27;;;;;;;2.81;100.00;99101.97;5070874;28;20657;-75
2022/03/31 06:21:08;;;;;;;22.97;18.70;;;;;;;2.78;100.00;99106.06;5071230;28;20194;-74
2022/03/31 06:23:33;;;;;;;22.67;15.07;;;;;;;2.78;100.00;99124.94;5071164;28;20221;-74
2022/03/31 06:25:59;;;;;;;18.57;14.93;;;;;;;2.79;100.00;99120.34;5071015;28;20181;-75
2022/03/31 06:28:26;;;;;;;20.87;14.73;;;;;;;2.78;100.00;99092.56;5070533;28;20247;-73
2022/03/31 06:30:51;;;;;;;18.03;14.23;;;;;;;2.83;100.00;99129.44;5071033;28;20174;-77
2022/03/31 06:33:18;;;;;;;19.27;14.57;;;;;;;2.84;100.00;99129.16;5070890;28;20188;-77
2022/03/31 06:35:44;;;;;;;20.07;16.33;;;;;;;2.87;100.00;99131.25;5070850;28;20644;-77
2022/03/31 06:38:11;;;;;;;19.07;14.40;;;;;;;2.90;100.00;99129.88;5070273;28;20171;-77
2022/03/31 06:40:37;;;;;;;22.57;16.27;;;;;;;2.95;100.00;99113.63;5070658;28;20269;-76
2022/03/31 06:43:05;;;;;;;20.47;14.83;;;;;;;2.97;100.00;99135.69;5070789;28;20254;-75
2022/03/31 06:45:31;;;;;;;23.20;15.93;;;;;;;2.93;100.00;99126.59;5070394;28;20179;-76
2022/03/31 06:47:58;;;;;;;23.70;16.43;;;;;;;2.92;100.00;99106.13;5070701;28;20573;-74
2022/03/31 06:50:24;;;;;;;28.10;17.80;;;;;;;2.88;100.00;99138.25;5070644;28;20760;-77
2022/03/31 06:52:50;;;;;;;17.30;13.97;;;;;;;2.85;100.00;99130.75;5066502;28;20277;-75
2022/03/31 06:55:15;;;;;;;27.53;18.30;;;;;;;2.82;100.00;99127.84;5070264;28;20182;-75
2022/03/31 06:57:41;;;;;;;22.27;15.33;;;;;;;2.90;100.00;99125.28;5070438;28;20653;-79
2022/03/31 07:00:07;;;;;;;22.53;15.03;;;;;;;2.95;100.00;99127.09;5070649;28;20289;-76
2022/03/31 07:02:32;;;;;;;21.67;16.47;;;;;;;2.95;100.00;99122.50;5069277;28;20206;-77
2022/03/31 07:04:57;;;;;;;21.97;17.17;;;;;;;2.93;100.00;99129.28;5070988;28;20692;-75
2022/03/31 07:07:24;;;;;;;24.80;15.83;;;;;;;2.89;100.00;99129.09;5068092;28;20199;-75
2022/03/31 07:09:51;;;;;;;19.97;14.80;;;;;;;2.89;100.00;99123.69;5066249;28;20692;-75
2022/03/31 07:12:16;;;;;;;20.03;14.67;;;;;;;2.94;100.00;99125.50;5070702;28;20703;-74
2022/03/31 07:14:43;;;;;;;19.80;16.07;;;;;;;3.01;100.00;99130.50;5070492;28;20170;-75
2022/03/31 07:17:09;;;;;;;15.90;14.37;;;;;;;3.03;100.00;99131.81;5070619;28;20272;-74
2022/03/31 07:19:34;;;;;;;16.97;12.67;;;;;;;3.03;100.00;99134.50;5070474;28;20170;-75
2022/03/31 07:22:00;;;;;;;13.40;11.80;;;;;;;3.08;100.00;99125.56;5070628;28;20167;-74
2022/03/31 07:24:25;;;;;;;11.90;10.70;;;;;;;3.15;100.00;99139.47;5070693;28;20173;-78
2022/03/31 07:26:51;;;;;;;20.87;14.00;;;;;;;3.14;100.00;99140.56;5070527;28;20253;-75
2022/03/31 07:29:16;;;;;;;16.43;12.60;;;;;;;3.20;99.56;99144.78;5069896;28;20261;-76
2022/03/31 07:31:41;;;;;;;23.17;12.73;;;;;;;3.06;98.98;99139.34;5066951;28;20190;-76
2022/03/31 07:34:07;;;;;;;12.90;11.70;;;;;;;3.06;98.50;99130.44;5069075;28;20206;-74
2022/03/31 07:36:32;;;;;;;15.40;12.73;;;;;;;3.08;98.41;99120.16;5070397;28;20178;-76
2022/03/31 07:38:57;;;;;;;14.67;13.13;;;;;;;3.12;97.85;99126.56;5070451;28;20554;-78
2022/03/31 07:41:23;;;;;;;14.17;12.33;;;;;;;3.08;97.15;99125.56;5070428;28;20261;-77
2022/03/31 07:43:48;;;;;;;12.20;10.90;;;;;;;3.17;96.80;99131.88;5070144;28;20182;-76
2022/03/31 07:46:14;;;;;;;10.70;9.67;;;;;;;3.15;96.46;99147.56;5069708;28;20693;-73
2022/03/31 07:48:39;;;;;;;11.33;10.27;;;;;;;3.14;95.68;99137.84;5069684;28;20598;-74
2022/03/31 07:51:05;;;;;;;12.07;10.97;;;;;;;3.08;94.67;99134.44;5071796;28;20221;-74
2022/03/31 07:53:33;;;;;;;11.27;9.57;;;;;;;3.07;93.56;99137.44;5074407;28;20478;-72
2022/03/31 07:55:59;;;;;;;12.00;9.97;;;;;;;3.01;92.98;99135.91;5073873;28;20224;-76
2022/03/31 07:58:24;;;;;;;11.73;10.27;;;;;;;2.98;92.21;99145.38;5073577;28;20201;-73
2022/03/31 08:00:52;;;;;;;9.10;8.07;;;;;;;2.89;91.40;99141.75;5074062;28;20561;-76
2022/03/31 08:03:18;;;;;;;10.10;9.20;;;;;;;2.83;90.57;99143.72;5073866;28;20625;-73
2022/03/31 08:05:48;;;;;;;11.00;9.83;;;;;;;2.78;90.39;99124.94;5072722;28;20526;-76
2022/03/31 08:08:13;;;;;;;11.33;10.23;;;;;;;2.84;89.93;99125.66;5073446;28;20177;-71
2022/03/31 08:10:38;;;;;;;16.70;9.90;;;;;;;2.88;89.54;99138.25;5073823;28;20179;-71
2022/03/31 08:13:04;;;;;;;11.80;10.00;;;;;;;2.83;88.99;99129.44;5073783;28;20210;-70
2022/03/31 08:15:30;;;;;;;13.80;11.80;;;;;;;2.86;88.95;99131.53;5074236;28;20224;-70
2022/03/31 08:17:55;;;;;;;12.47;11.17;;;;;;;2.96;88.73;99129.50;5073491;28;20178;-70
2022/03/31 08:20:21;;;;;;;16.60;11.17;;;;;;;2.92;88.29;99111.50;5074242;28;20487;-72
2022/03/31 08:22:47;;;;;;;12.70;11.43;;;;;;;2.95;87.89;99125.22;5072408;28;20179;-72
2022/03/31 08:25:13;;;;;;;16.17;12.70;;;;;;;2.93;87.23;99113.09;5073727;28;20174;-70
2022/03/31 08:27:39;;;;;;;15.87;12.80;;;;;;;2.98;86.97;99130.00;5072364;28;20626;-72
2022/03/31 08:30:08;;;;;;;15.00;13.23;;;;;;;3.03;86.69;99129.13;5072252;28;20331;-70
2022/03/31 08:32:36;;;;;;;14.13;12.63;;;;;;;3.02;85.98;99124.00;5072997;28;20540;-70
2022/03/31 08:35:03;;;;;;;13.73;12.20;;;;;;;3.05;85.93;99126.16;5073202;28;20262;-71
2022/03/31 08:37:28;;;;;;;16.30;12.20;;;;;;;2.95;85.31;99130.59;5068942;28;20199;-70
2022/03/31 08:39:54;;;;;;;14.57;13.27;;;;;;;2.95;85.47;99127.91;5071639;28;20252;-73
2022/03/31 08:42:19;;;;;;;12.93;11.80;;;;;;;2.98;85.34;99127.31;5072151;28;20171;-70
2022/03/31 08:44:49;;;;;;;18.97;13.60;;;;;;;2.97;85.36;99123.00;5073532;28;20645;-71
2022/03/31 08:47:17;;;;;;;16.20;13.83;;;;;;;3.03;85.19;99133.72;5073050;28;20243;-73
2022/03/31 08:49:43;;;;;;;17.77;15.20;;;;;;;2.95;85.50;99127.09;5073200;28;20209;-72
2022/03/31 08:52:09;;;;;;;16.10;13.17;;;;;;;3.04;85.70;99129.91;5073369;28;20270;-70
2022/03/31 08:54:34;;;;;;;13.90;11.47;;;;;;;3.05;85.90;99136.94;5071958;28;20633;-75
2022/03/31 08:57:00;;;;;;;20.00;13.13;;;;;;;3.20;85.60;99140.19;5073102;28;20221;-72
2022/03/31 08:59:26;;;;;;;15.90;11.77;;;;;;;3.21;85.65;99144.50;5073108;28;20733;-75
2022/03/31 09:01:51;;;;;;;17.23;15.60;;;;;;;3.16;85.55;99138.34;5073095;28;20748;-70
2022/03/31 09:04:21;;;;;;;17.07;13.00;;;;;;;3.16;85.38;99141.06;5072934;28;20277;-71
2022/03/31 09:06:49;;;;;;;20.90;15.17;;;;;;;3.26;85.72;99144.41;5070996;28;20179;-71
2022/03/31 09:09:16;;;;;;;18.83;14.20;;;;;;;3.45;85.27;99144.34;5071110;28;20222;-71
2022/03/31 09:11:45;;;;;;;16.23;14.17;;;;;;;3.55;84.88;99154.19;5072697;28;20209;-71
2022/03/31 09:14:10;;;;;;;17.10;13.70;;;;;;;3.44;84.32;99142.75;5072388;28;20240;-75
2022/03/31 09:16:38;;;;;;;20.80;14.37;;;;;;;3.50;84.40;99143.47;5072315;28;20202;-71
2022/03/31 09:19:10;;;;;;;14.83;13.17;;;;;;;3.47;83.97;99150.28;5072322;28;20175;-72
2022/03/31 09:21:50;;;;;;;16.43;14.77;;;;;;;3.36;84.20;99137.25;5072517;28;20202;-73
2022/03/31 09:24:16;;;;;;;16.10;14.37;;;;;;;3.39;84.45;99145.53;5072727;28;20159;-70
2022/03/31 09:26:49;;;;;;;16.37;14.70;;;;;;;3.31;84.72;99148.09;5072200;28;20216;-75
2022/03/31 09:29:15;;;;;;;24.47;14.40;;;;;;;3.39;84.91;99144.75;5071994;28;20206;-76
2022/03/31 09:31:42;;;;;;;18.63;15.37;;;;;;;3.21;84.82;99139.09;5072336;28;20182;-76
2022/03/31 09:34:08;;;;;;;19.37;15.80;;;;;;;3.20;85.26;99150.19;5072317;28;20524;-75
2022/03/31 09:36:35;;;;;;;16.27;14.57;;;;;;;3.32;85.23;99150.50;5072006;28;20174;-76
2022/03/31 09:39:08;;;;;;;22.57;16.63;;;;;;;3.39;85.20;99147.44;5071937;28;20174;-77
2022/03/31 09:41:39;;;;;;;20.00;16.73;;;;;;;3.29;85.03;99154.59;5071869;28;20267;-74
2022/03/31 09:44:07;;;;;;;33.63;18.63;;;;;;;3.26;85.57;99139.00;5071896;28;20198;-74
2022/03/31 09:46:38;;;;;;;19.40;14.87;;;;;;;3.37;85.88;99144.25;5071267;28;20163;-74
2022/03/31 09:49:25;;;;;;;20.03;16.03;;;;;;;3.36;85.11;99146.13;5070535;28;20595;-76
2022/03/31 09:51:56;;;;;;;17.47;15.37;;;;;;;3.20;84.14;99142.09;5071988;28;20167;-74
2022/03/31 09:54:26;;;;;;;20.53;17.50;;;;;;;3.22;83.96;99145.28;5071564;28;20693;-77
2022/03/31 09:56:52;;;;;;;22.50;18.23;;;;;;;3.29;84.26;99154.59;5071583;28;20182;-76
2022/03/31 09:59:18;;;;;;;16.13;14.50;;;;;;;3.28;83.94;99150.31;5071343;28;20212;-77
2022/03/31 10:01:45;;;;;;;19.93;14.90;;;;;;;3.22;83.71;99153.38;5071613;28;20194;-75
2022/03/31 10:04:12;;;;;;;23.37;16.30;;;;;;;3.33;83.77;99159.41;5071345;28;20236;-76
2022/03/31 10:06:40;;;;;;;22.37;15.60;;;;;;;3.42;83.72;99146.84;5070039;28;20694;-76
2022/03/31 10:09:07;;;;;;;18.57;15.43;;;;;;;3.29;83.48;99143.81;5071138;28;20210;-75
2022/03/31 10:11:34;;;;;;;20.17;16.13;;;;;;;3.32;83.61;99152.41;5071517;28;20170;-75
2022/03/31 10:14:14;;;;;;;18.70;14.50;;;;;;;3.35;83.38;99149.94;5070826;28;20178;-76
2022/03/31 10:16:44;;;;;;;20.90;13.60;;;;;;;3.35;83.22;99147.25;5071175;28;20261;-76
2022/03/31 10:19:10;;;;;;;16.53;14.97;;;;;;;3.46;83.27;99151.34;5070087;28;20336;-76
2022/03/31 10:21:36;;;;;;;15.30;13.77;;;;;;;3.43;82.83;99149.25;5071428;28;20579;-76
2022/03/31 10:26:56;;;;;;;15.00;13.43;;;;;;;3.47;82.40;99133.25;5070978;28;20186;-76
2022/03/31 10:29:22;;;;;;;11.60;10.60;;;;;;;3.58;82.12;99148.97;5070968;28;20202;-76
2022/03/31 10:31:48;;;;;;;11.90;10.70;;;;;;;3.69;81.55;99138.81;5071150;28;20225;-76
2022/03/31 10:34:14;;;;;;;15.17;11.80;;;;;;;3.72;80.90;99146.31;5070957;28;20257;-75
2022/03/31 10:36:45;;;;;;;10.77;9.83;;;;;;;3.68;80.44;99134.50;5071041;28;20673;-75
2022/03/31 10:39:22;;;;;;;10.70;9.73;;;;;;;3.74;80.01;99127.09;5070699;28;20217;-77
2022/03/31 10:42:01;;;;;;;14.83;8.57;;;;;;;3.91;79.75;99119.22;5070645;28;20192;-75
2022/03/31 10:44:26;;;;;;;8.80;7.50;;;;;;;3.90;79.12;99101.38;5070829;28;20181;-76
2022/03/31 10:47:02;;;;;;;9.83;8.83;;;;;;;3.97;78.54;99088.28;5070152;28;20265;-76
2022/03/31 10:49:28;;;;;;;7.80;6.90;;;;;;;4.07;78.46;99088.09;5070476;28;20567;-74
2022/03/31 10:51:54;;;;;;;8.33;7.53;;;;;;;4.01;77.62;99069.56;5070583;28;20175;-74
2022/03/31 10:54:29;;;;;;;8.93;8.10;;;;;;;4.12;77.47;99087.19;5070641;28;20227;-76
2022/03/31 10:57:17;;;;;;;8.83;7.93;;;;;;;4.17;77.09;99085.16;5070444;28;20213;-75
2022/03/31 10:59:46;;;;;;;8.10;7.30;;;;;;;4.08;76.63;99070.78;5069165;28;20535;-74
2022/03/31 11:02:11;;;;;;;8.63;7.23;;;;;;;4.05;76.48;99074.09;5070447;28;20191;-75
2022/03/31 11:04:48;;;;;;;8.00;7.30;;;;;;;4.14;76.63;99080.38;5070777;28;20175;-75
2022/03/31 11:07:20;;;;;;;8.27;7.57;;;;;;;4.29;76.23;99073.03;5070348;28;20171;-76
2022/03/31 11:09:46;;;;;;;11.67;8.83;;;;;;;4.34;75.40;99071.03;5070745;28;20210;-76
2022/03/31 11:12:23;;;;;;;7.60;6.80;;;;;;;4.59;75.22;99066.16;5070487;28;20174;-82
2022/03/31 11:15:07;;;;;;;8.77;7.97;;;;;;;4.61;74.90;99066.63;5069312;28;20185;-74
2022/03/31 11:17:33;;;;;;;8.67;7.97;;;;;;;4.68;74.52;99070.53;5070051;28;20581;-77
2022/03/31 11:20:06;;;;;;;7.63;6.97;;;;;;;4.68;74.00;99048.91;5070458;28;20545;-77
2022/03/31 11:22:31;;;;;;;9.13;7.60;;;;;;;4.70;73.52;99051.28;5070391;28;20304;-74
2022/03/31 11:25:10;;;;;;;6.63;5.30;;;;;;;4.84;73.29;99053.94;5069290;28;20253;-76
2022/03/31 11:27:38;;;;;;;6.30;5.73;;;;;;;4.81;73.00;99052.66;5069954;28;20179;-76
2022/03/31 11:30:12;;;;;;;8.43;7.30;;;;;;;4.94;72.52;99056.41;5070054;28;20206;-73
2022/03/31 11:32:39;;;;;;;7.07;6.47;;;;;;;5.08;71.79;99054.44;5070218;28;20174;-72
2022/03/31 11:35:17;;;;;;;10.73;6.47;;;;;;;4.96;70.57;99057.69;5070192;28;20265;-76
2022/03/31 11:37:53;;;;;;;7.57;6.87;;;;;;;5.10;70.43;99022.44;5069754;28;20486;-72
2022/03/31 11:40:21;;;;;;;5.40;5.00;;;;;;;5.29;70.12;99044.66;5068673;28;20284;-73
2022/03/31 11:42:48;;;;;;;7.07;6.27;;;;;;;5.52;69.72;99041.91;5070216;28;20175;-73